sensor_id;sensor_type;location;lat;lon;timestamp;temperature;humidity
3628;DHT22;1830;49.000;12.074;2023-05-07T00:00:33;12.90;99.90
3628;DHT22;1830;49.000;12.074;2023-05-07T00:03:00;12.80;99.90
3628;DHT22;1830;49.000;12.074;2023-05-07T00:05:27;12.80;99.90
3628;DHT22;1830;49.000;12.074;2023-05-07T00:07:56;12.80;99.90
3628;DHT22;1830;49.000;12.074;2023-05-07T00:10:23;12.80;99.90
3628;DHT22;1830;49.000;12.074;2023-05-07T00:12:50;12.80;99.90
3628;DHT22;1830;49.000;12.074;2023-05-07T00:15:17;12.80;99.90
3628;DHT22;1830;49.000;12.074;2023-05-07T00:17:44;12.80;99.90
3628;DHT22;1830;49.000;12.074;2023-05-07T00:20:11;12.80;99.90
3628;DHT22;1830;49.000;12.074;2023-05-07T00:22:38;12.80;99.90
3628;DHT22;1830;49.000;12.074;2023-05-07T00:25:07;12.70;99.90
3628;DHT22;1830;49.000;12.074;2023-05-07T00:27:35;12.70;99.90
3628;DHT22;1830;49.000;12.074;2023-05-07T00:30:02;12.70;99.90
3628;DHT22;1830;49.000;12.074;2023-05-07T00:32:29;12.70;99.90
3628;DHT22;1830;49.000;12.074;2023-05-07T00:34:56;12.60;99.90
3628;DHT22;1830;49.000;12.074;2023-05-07T00:37:22;12.60;99.90
3628;DHT22;1830;49.000;12.074;2023-05-07T00:39:49;12.60;99.90
3628;DHT22;1830;49.000;12.074;2023-05-07T00:42:18;12.60;99.90
3628;DHT22;1830;49.000;12.074;2023-05-07T00:44:45;12.60;99.90
3628;DHT22;1830;49.000;12.074;2023-05-07T00:47:12;12.50;99.90
3628;DHT22;1830;49.000;12.074;2023-05-07T00:49:41;12.50;99.90
3628;DHT22;1830;49.000;12.074;2023-05-07T00:52:10;12.40;99.90
3628;DHT22;1830;49.000;12.074;2023-05-07T00:54:38;12.40;99.90
3628;DHT22;1830;49.000;12.074;2023-05-07T00:57:06;12.40;99.90
3628;DHT22;1830;49.000;12.074;2023-05-07T00:59:37;12.40;99.90
3628;DHT22;1830;49.000;12.074;2023-05-07T01:02:04;12.40;99.90
3628;DHT22;1830;49.000;12.074;2023-05-07T01:04:30;12.40;99.90
3628;DHT22;1830;49.000;12.074;2023-05-07T01:06:58;12.40;99.90
3628;DHT22;1830;49.000;12.074;2023-05-07T01:09:26;12.50;99.90
3628;DHT22;1830;49.000;12.074;2023-05-07T01:11:53;12.40;99.90
3628;DHT22;1830;49.000;12.074;2023-05-07T01:14:23;12.40;99.90
3628;DHT22;1830;49.000;12.074;2023-05-07T01:16:51;12.40;99.90
3628;DHT22;1830;49.000;12.074;2023-05-07T01:19:19;12.40;99.90
3628;DHT22;1830;49.000;12.074;2023-05-07T01:21:47;12.40;99.90
3628;DHT22;1830;49.000;12.074;2023-05-07T01:24:15;12.30;99.90
3628;DHT22;1830;49.000;12.074;2023-05-07T01:26:43;12.30;99.90
3628;DHT22;1830;49.000;12.074;2023-05-07T01:29:10;12.30;99.90
3628;DHT22;1830;49.000;12.074;2023-05-07T01:31:37;12.20;99.90
3628;DHT22;1830;49.000;12.074;2023-05-07T01:34:07;12.20;99.90
3628;DHT22;1830;49.000;12.074;2023-05-07T01:36:35;12.20;99.90
3628;DHT22;1830;49.000;12.074;2023-05-07T01:39:03;12.10;99.90
3628;DHT22;1830;49.000;12.074;2023-05-07T01:41:32;12.10;99.90
3628;DHT22;1830;49.000;12.074;2023-05-07T01:43:59;12.00;99.90
3628;DHT22;1830;49.000;12.074;2023-05-07T01:46:27;12.10;99.90
3628;DHT22;1830;49.000;12.074;2023-05-07T01:48:54;12.10;99.90
3628;DHT22;1830;49.000;12.074;2023-05-07T01:51:21;12.10;99.90
3628;DHT22;1830;49.000;12.074;2023-05-07T01:53:48;12.10;99.90
3628;DHT22;1830;49.000;12.074;2023-05-07T01:56:16;12.10;99.90
3628;DHT22;1830;49.000;12.074;2023-05-07T01:58:45;12.10;99.90
3628;DHT22;1830;49.000;12.074;2023-05-07T02:01:13;12.00;99.90
3628;DHT22;1830;49.000;12.074;2023-05-07T02:03:40;12.00;99.90
3628;DHT22;1830;49.000;12.074;2023-05-07T02:06:07;12.00;99.90
3628;DHT22;1830;49.000;12.074;2023-05-07T02:08:33;12.00;99.90
3628;DHT22;1830;49.000;12.074;2023-05-07T02:11:00;12.00;99.90
3628;DHT22;1830;49.000;12.074;2023-05-07T02:13:29;12.00;99.90
3628;DHT22;1830;49.000;12.074;2023-05-07T02:15:57;12.00;99.90
3628;DHT22;1830;49.000;12.074;2023-05-07T02:18:24;12.00;99.90
3628;DHT22;1830;49.000;12.074;2023-05-07T02:20:51;12.00;99.90
3628;DHT22;1830;49.000;12.074;2023-05-07T02:23:18;12.00;99.90
3628;DHT22;1830;49.000;12.074;2023-05-07T02:25:44;11.90;99.90
3628;DHT22;1830;49.000;12.074;2023-05-07T02:28:12;11.80;99.90
3628;DHT22;1830;49.000;12.074;2023-05-07T02:30:38;11.80;99.90
3628;DHT22;1830;49.000;12.074;2023-05-07T02:33:07;11.80;99.90
3628;DHT22;1830;49.000;12.074;2023-05-07T02:35:34;11.80;99.90
3628;DHT22;1830;49.000;12.074;2023-05-07T02:38:01;11.80;99.90
3628;DHT22;1830;49.000;12.074;2023-05-07T02:40:28;11.80;99.90
3628;DHT22;1830;49.000;12.074;2023-05-07T02:42:55;11.70;99.90
3628;DHT22;1830;49.000;12.074;2023-05-07T02:45:22;11.70;99.90
3628;DHT22;1830;49.000;12.074;2023-05-07T02:47:49;11.70;99.90
3628;DHT22;1830;49.000;12.074;2023-05-07T02:50:17;11.60;99.90
3628;DHT22;1830;49.000;12.074;2023-05-07T02:52:43;11.60;99.90
3628;DHT22;1830;49.000;12.074;2023-05-07T02:55:10;11.60;99.90
3628;DHT22;1830;49.000;12.074;2023-05-07T02:57:37;11.60;99.90
3628;DHT22;1830;49.000;12.074;2023-05-07T03:00:11;11.60;99.90
3628;DHT22;1830;49.000;12.074;2023-05-07T03:02:38;11.60;99.90
3628;DHT22;1830;49.000;12.074;2023-05-07T03:05:06;11.60;99.90
3628;DHT22;1830;49.000;12.074;2023-05-07T03:07:34;11.60;99.90
3628;DHT22;1830;49.000;12.074;2023-05-07T03:10:02;11.60;99.90
3628;DHT22;1830;49.000;12.074;2023-05-07T03:12:34;11.60;99.90
3628;DHT22;1830;49.000;12.074;2023-05-07T03:15:03;11.60;99.90
3628;DHT22;1830;49.000;12.074;2023-05-07T03:17:30;11.60;99.90
3628;DHT22;1830;49.000;12.074;2023-05-07T03:19:57;11.60;99.90
3628;DHT22;1830;49.000;12.074;2023-05-07T03:22:23;11.60;99.90
3628;DHT22;1830;49.000;12.074;2023-05-07T03:24:52;11.60;99.90
3628;DHT22;1830;49.000;12.074;2023-05-07T03:27:19;11.60;99.90
3628;DHT22;1830;49.000;12.074;2023-05-07T03:29:45;11.70;99.90
3628;DHT22;1830;49.000;12.074;2023-05-07T03:32:13;11.60;99.90
3628;DHT22;1830;49.000;12.074;2023-05-07T03:34:40;11.60;99.90
3628;DHT22;1830;49.000;12.074;2023-05-07T03:37:06;11.60;99.90
3628;DHT22;1830;49.000;12.074;2023-05-07T03:39:33;11.50;99.90
3628;DHT22;1830;49.000;12.074;2023-05-07T03:42:02;11.50;99.90
3628;DHT22;1830;49.000;12.074;2023-05-07T03:44:29;11.50;99.90
3628;DHT22;1830;49.000;12.074;2023-05-07T03:46:55;11.50;99.90
3628;DHT22;1830;49.000;12.074;2023-05-07T03:49:22;11.50;99.90
3628;DHT22;1830;49.000;12.074;2023-05-07T03:51:49;11.50;99.90
3628;DHT22;1830;49.000;12.074;2023-05-07T03:54:16;11.50;99.90
3628;DHT22;1830;49.000;12.074;2023-05-07T03:56:42;11.60;99.90
3628;DHT22;1830;49.000;12.074;2023-05-07T03:59:11;11.60;99.90
3628;DHT22;1830;49.000;12.074;2023-05-07T04:01:38;11.50;99.90
3628;DHT22;1830;49.000;12.074;2023-05-07T04:04:05;11.50;99.90
3628;DHT22;1830;49.000;12.074;2023-05-07T04:06:32;11.60;99.90
3628;DHT22;1830;49.000;12.074;2023-05-07T04:08:59;11.60;99.90
3628;DHT22;1830;49.000;12.074;2023-05-07T04:11:26;11.60;99.90
3628;DHT22;1830;49.000;12.074;2023-05-07T04:13:53;11.60;99.90
3628;DHT22;1830;49.000;12.074;2023-05-07T04:16:21;11.60;99.90
3628;DHT22;1830;49.000;12.074;2023-05-07T04:18:48;11.60;99.90
3628;DHT22;1830;49.000;12.074;2023-05-07T04:21:16;11.70;99.90
3628;DHT22;1830;49.000;12.074;2023-05-07T04:23:43;11.70;99.90
3628;DHT22;1830;49.000;12.074;2023-05-07T04:26:10;11.70;99.90
3628;DHT22;1830;49.000;12.074;2023-05-07T04:28:37;11.70;99.90
3628;DHT22;1830;49.000;12.074;2023-05-07T04:31:04;11.70;99.90
3628;DHT22;1830;49.000;12.074;2023-05-07T04:33:33;11.80;99.90
3628;DHT22;1830;49.000;12.074;2023-05-07T04:36:01;11.80;99.90
3628;DHT22;1830;49.000;12.074;2023-05-07T04:38:29;11.80;99.90
3628;DHT22;1830;49.000;12.074;2023-05-07T04:40:57;11.80;99.90
3628;DHT22;1830;49.000;12.074;2023-05-07T04:43:24;11.80;99.90
3628;DHT22;1830;49.000;12.074;2023-05-07T04:45:51;11.80;99.90
3628;DHT22;1830;49.000;12.074;2023-05-07T04:48:18;11.80;99.90
3628;DHT22;1830;49.000;12.074;2023-05-07T04:50:48;11.90;99.90
3628;DHT22;1830;49.000;12.074;2023-05-07T04:53:15;11.90;99.90
3628;DHT22;1830;49.000;12.074;2023-05-07T04:55:42;11.90;99.90
3628;DHT22;1830;49.000;12.074;2023-05-07T04:58:09;12.00;99.90
3628;DHT22;1830;49.000;12.074;2023-05-07T05:00:36;12.00;99.90
3628;DHT22;1830;49.000;12.074;2023-05-07T05:03:04;12.10;99.90
3628;DHT22;1830;49.000;12.074;2023-05-07T05:05:31;12.20;99.90
3628;DHT22;1830;49.000;12.074;2023-05-07T05:07:59;12.20;99.90
3628;DHT22;1830;49.000;12.074;2023-05-07T05:10:26;12.30;99.90
3628;DHT22;1830;49.000;12.074;2023-05-07T05:12:53;12.40;99.90
3628;DHT22;1830;49.000;12.074;2023-05-07T05:15:20;12.40;99.90
3628;DHT22;1830;49.000;12.074;2023-05-07T05:17:46;12.40;99.90
3628;DHT22;1830;49.000;12.074;2023-05-07T05:20:13;12.50;99.90
3628;DHT22;1830;49.000;12.074;2023-05-07T05:22:41;12.50;99.90
3628;DHT22;1830;49.000;12.074;2023-05-07T05:25:09;12.50;99.90
3628;DHT22;1830;49.000;12.074;2023-05-07T05:27:36;12.60;99.90
3628;DHT22;1830;49.000;12.074;2023-05-07T05:30:04;12.60;99.90
3628;DHT22;1830;49.000;12.074;2023-05-07T05:32:31;12.60;99.90
3628;DHT22;1830;49.000;12.074;2023-05-07T05:34:57;12.60;99.90
3628;DHT22;1830;49.000;12.074;2023-05-07T05:37:25;12.70;99.90
3628;DHT22;1830;49.000;12.074;2023-05-07T05:39:52;12.70;99.90
3628;DHT22;1830;49.000;12.074;2023-05-07T05:42:21;12.70;99.90
3628;DHT22;1830;49.000;12.074;2023-05-07T05:44:48;12.80;99.90
3628;DHT22;1830;49.000;12.074;2023-05-07T05:47:15;12.80;99.90
3628;DHT22;1830;49.000;12.074;2023-05-07T05:49:41;12.90;99.90
3628;DHT22;1830;49.000;12.074;2023-05-07T05:52:09;12.90;99.90
3628;DHT22;1830;49.000;12.074;2023-05-07T05:54:36;13.00;99.90
3628;DHT22;1830;49.000;12.074;2023-05-07T05:57:03;13.00;99.90
3628;DHT22;1830;49.000;12.074;2023-05-07T05:59:32;13.00;99.90
3628;DHT22;1830;49.000;12.074;2023-05-07T06:01:59;13.00;99.90
3628;DHT22;1830;49.000;12.074;2023-05-07T06:04:26;13.10;99.90
3628;DHT22;1830;49.000;12.074;2023-05-07T06:06:53;13.10;99.90
3628;DHT22;1830;49.000;12.074;2023-05-07T06:09:20;13.10;99.90
3628;DHT22;1830;49.000;12.074;2023-05-07T06:11:46;13.10;99.90
3628;DHT22;1830;49.000;12.074;2023-05-07T06:14:13;13.20;99.90
3628;DHT22;1830;49.000;12.074;2023-05-07T06:16:41;13.20;99.90
3628;DHT22;1830;49.000;12.074;2023-05-07T06:19:08;13.30;99.90
3628;DHT22;1830;49.000;12.074;2023-05-07T06:21:35;13.30;99.90
3628;DHT22;1830;49.000;12.074;2023-05-07T06:24:02;13.30;99.90
3628;DHT22;1830;49.000;12.074;2023-05-07T06:26:28;13.40;99.90
3628;DHT22;1830;49.000;12.074;2023-05-07T06:28:55;13.50;99.90
3628;DHT22;1830;49.000;12.074;2023-05-07T06:31:22;13.50;99.90
3628;DHT22;1830;49.000;12.074;2023-05-07T06:33:50;13.60;99.90
3628;DHT22;1830;49.000;12.074;2023-05-07T06:36:17;13.60;99.90
3628;DHT22;1830;49.000;12.074;2023-05-07T06:38:44;13.70;99.90
3628;DHT22;1830;49.000;12.074;2023-05-07T06:41:10;13.80;99.90
3628;DHT22;1830;49.000;12.074;2023-05-07T06:43:37;13.90;99.90
3628;DHT22;1830;49.000;12.074;2023-05-07T06:46:04;13.90;99.90
3628;DHT22;1830;49.000;12.074;2023-05-07T06:48:31;14.00;99.90
3628;DHT22;1830;49.000;12.074;2023-05-07T06:50:59;14.10;99.90
3628;DHT22;1830;49.000;12.074;2023-05-07T06:53:25;14.20;99.90
3628;DHT22;1830;49.000;12.074;2023-05-07T06:55:53;14.30;99.90
3628;DHT22;1830;49.000;12.074;2023-05-07T06:58:20;14.40;99.90
3628;DHT22;1830;49.000;12.074;2023-05-07T07:00:47;14.40;99.90
3628;DHT22;1830;49.000;12.074;2023-05-07T07:03:14;14.50;99.90
3628;DHT22;1830;49.000;12.074;2023-05-07T07:05:41;14.50;99.90
3628;DHT22;1830;49.000;12.074;2023-05-07T07:08:10;14.50;99.90
3628;DHT22;1830;49.000;12.074;2023-05-07T07:10:36;14.50;99.90
3628;DHT22;1830;49.000;12.074;2023-05-07T07:13:03;14.50;99.90
3628;DHT22;1830;49.000;12.074;2023-05-07T07:15:30;14.60;99.90
3628;DHT22;1830;49.000;12.074;2023-05-07T07:17:57;14.70;99.90
3628;DHT22;1830;49.000;12.074;2023-05-07T07:20:23;14.70;99.90
3628;DHT22;1830;49.000;12.074;2023-05-07T07:22:50;14.80;99.90
3628;DHT22;1830;49.000;12.074;2023-05-07T07:25:18;14.90;99.90
3628;DHT22;1830;49.000;12.074;2023-05-07T07:27:45;14.90;99.90
3628;DHT22;1830;49.000;12.074;2023-05-07T07:30:12;14.90;99.90
3628;DHT22;1830;49.000;12.074;2023-05-07T07:32:39;15.00;99.90
3628;DHT22;1830;49.000;12.074;2023-05-07T07:35:07;15.00;99.90
3628;DHT22;1830;49.000;12.074;2023-05-07T07:37:33;15.10;99.90
3628;DHT22;1830;49.000;12.074;2023-05-07T07:40:00;15.20;99.90
3628;DHT22;1830;49.000;12.074;2023-05-07T07:42:28;15.30;99.90
3628;DHT22;1830;49.000;12.074;2023-05-07T07:44:55;15.30;99.90
3628;DHT22;1830;49.000;12.074;2023-05-07T07:47:22;15.30;99.90
3628;DHT22;1830;49.000;12.074;2023-05-07T07:49:49;15.30;99.90
3628;DHT22;1830;49.000;12.074;2023-05-07T07:52:16;15.50;99.90
3628;DHT22;1830;49.000;12.074;2023-05-07T07:54:43;15.50;99.90
3628;DHT22;1830;49.000;12.074;2023-05-07T07:57:09;15.60;99.90
3628;DHT22;1830;49.000;12.074;2023-05-07T07:59:37;15.70;99.90
3628;DHT22;1830;49.000;12.074;2023-05-07T08:02:05;15.90;99.90
3628;DHT22;1830;49.000;12.074;2023-05-07T08:04:32;15.90;99.90
3628;DHT22;1830;49.000;12.074;2023-05-07T08:06:58;16.00;99.90
3628;DHT22;1830;49.000;12.074;2023-05-07T08:09:25;16.10;99.90
3628;DHT22;1830;49.000;12.074;2023-05-07T08:11:52;16.20;99.90
3628;DHT22;1830;49.000;12.074;2023-05-07T08:14:19;16.30;99.90
3628;DHT22;1830;49.000;12.074;2023-05-07T08:16:47;16.30;99.90
3628;DHT22;1830;49.000;12.074;2023-05-07T08:19:14;16.40;99.90
3628;DHT22;1830;49.000;12.074;2023-05-07T08:21:41;16.40;99.90
3628;DHT22;1830;49.000;12.074;2023-05-07T08:24:07;16.50;99.90
3628;DHT22;1830;49.000;12.074;2023-05-07T08:26:34;16.60;99.90
3628;DHT22;1830;49.000;12.074;2023-05-07T08:29:01;16.70;99.90
3628;DHT22;1830;49.000;12.074;2023-05-07T08:31:28;16.80;99.90
3628;DHT22;1830;49.000;12.074;2023-05-07T08:33:56;16.90;99.90
3628;DHT22;1830;49.000;12.074;2023-05-07T08:36:23;16.90;99.90
3628;DHT22;1830;49.000;12.074;2023-05-07T08:38:51;16.90;99.90
3628;DHT22;1830;49.000;12.074;2023-05-07T08:41:17;16.90;99.90
3628;DHT22;1830;49.000;12.074;2023-05-07T08:43:47;17.00;99.90
3628;DHT22;1830;49.000;12.074;2023-05-07T08:46:17;17.00;99.90
3628;DHT22;1830;49.000;12.074;2023-05-07T08:48:45;17.00;99.90
3628;DHT22;1830;49.000;12.074;2023-05-07T08:51:16;17.10;99.90
3628;DHT22;1830;49.000;12.074;2023-05-07T08:53:43;17.20;99.90
3628;DHT22;1830;49.000;12.074;2023-05-07T08:56:11;17.20;99.90
3628;DHT22;1830;49.000;12.074;2023-05-07T08:58:38;17.30;99.90
3628;DHT22;1830;49.000;12.074;2023-05-07T09:01:08;17.30;99.90
3628;DHT22;1830;49.000;12.074;2023-05-07T09:03:35;17.40;99.90
3628;DHT22;1830;49.000;12.074;2023-05-07T09:06:03;17.50;99.90
3628;DHT22;1830;49.000;12.074;2023-05-07T09:08:32;17.50;99.90
3628;DHT22;1830;49.000;12.074;2023-05-07T09:11:00;17.60;99.90
3628;DHT22;1830;49.000;12.074;2023-05-07T09:13:27;17.60;99.90
3628;DHT22;1830;49.000;12.074;2023-05-07T09:15:54;17.50;99.90
3628;DHT22;1830;49.000;12.074;2023-05-07T09:18:21;17.60;99.90
3628;DHT22;1830;49.000;12.074;2023-05-07T09:20:48;17.60;99.90
3628;DHT22;1830;49.000;12.074;2023-05-07T09:23:14;17.70;99.90
3628;DHT22;1830;49.000;12.074;2023-05-07T09:25:42;17.80;99.90
3628;DHT22;1830;49.000;12.074;2023-05-07T09:28:09;17.90;99.90
3628;DHT22;1830;49.000;12.074;2023-05-07T09:30:37;18.00;99.90
3628;DHT22;1830;49.000;12.074;2023-05-07T09:33:04;18.00;99.90
3628;DHT22;1830;49.000;12.074;2023-05-07T09:35:30;18.10;99.90
3628;DHT22;1830;49.000;12.074;2023-05-07T09:37:59;18.20;99.90
3628;DHT22;1830;49.000;12.074;2023-05-07T09:40:27;18.40;99.90
3628;DHT22;1830;49.000;12.074;2023-05-07T09:42:56;18.50;99.90
3628;DHT22;1830;49.000;12.074;2023-05-07T09:45:24;18.50;99.90
3628;DHT22;1830;49.000;12.074;2023-05-07T09:47:54;18.50;99.90
3628;DHT22;1830;49.000;12.074;2023-05-07T09:50:25;18.40;99.90
3628;DHT22;1830;49.000;12.074;2023-05-07T09:52:54;18.40;99.90
3628;DHT22;1830;49.000;12.074;2023-05-07T09:55:21;18.50;99.90
3628;DHT22;1830;49.000;12.074;2023-05-07T09:57:50;18.70;99.90
3628;DHT22;1830;49.000;12.074;2023-05-07T10:00:20;18.70;99.90
3628;DHT22;1830;49.000;12.074;2023-05-07T10:02:49;18.80;99.90
3628;DHT22;1830;49.000;12.074;2023-05-07T10:05:18;19.00;99.90
3628;DHT22;1830;49.000;12.074;2023-05-07T10:07:46;19.10;99.90
3628;DHT22;1830;49.000;12.074;2023-05-07T10:10:14;19.10;99.90
3628;DHT22;1830;49.000;12.074;2023-05-07T10:12:41;19.10;99.90
3628;DHT22;1830;49.000;12.074;2023-05-07T10:15:09;19.10;99.90
3628;DHT22;1830;49.000;12.074;2023-05-07T10:17:38;19.20;99.90
3628;DHT22;1830;49.000;12.074;2023-05-07T10:20:07;19.20;99.90
3628;DHT22;1830;49.000;12.074;2023-05-07T10:22:39;19.30;99.90
3628;DHT22;1830;49.000;12.074;2023-05-07T10:25:14;19.40;99.90
3628;DHT22;1830;49.000;12.074;2023-05-07T10:27:43;19.50;99.90
3628;DHT22;1830;49.000;12.074;2023-05-07T10:30:18;19.50;99.90
3628;DHT22;1830;49.000;12.074;2023-05-07T10:32:52;19.50;99.90
3628;DHT22;1830;49.000;12.074;2023-05-07T10:35:22;19.60;99.90
3628;DHT22;1830;49.000;12.074;2023-05-07T10:37:51;19.70;99.90
3628;DHT22;1830;49.000;12.074;2023-05-07T10:40:18;19.90;99.90
3628;DHT22;1830;49.000;12.074;2023-05-07T10:42:56;20.10;99.90
3628;DHT22;1830;49.000;12.074;2023-05-07T10:45:24;20.00;99.90
3628;DHT22;1830;49.000;12.074;2023-05-07T10:48:10;20.00;99.90
3628;DHT22;1830;49.000;12.074;2023-05-07T10:50:37;19.90;99.90
3628;DHT22;1830;49.000;12.074;2023-05-07T10:53:24;19.80;99.90
3628;DHT22;1830;49.000;12.074;2023-05-07T10:56:25;19.70;99.90
3628;DHT22;1830;49.000;12.074;2023-05-07T10:58:53;19.80;99.90
3628;DHT22;1830;49.000;12.074;2023-05-07T11:01:50;19.90;99.90
3628;DHT22;1830;49.000;12.074;2023-05-07T11:04:18;20.10;99.90
3628;DHT22;1830;49.000;12.074;2023-05-07T11:07:24;19.90;99.90
3628;DHT22;1830;49.000;12.074;2023-05-07T11:09:55;19.80;99.90
3628;DHT22;1830;49.000;12.074;2023-05-07T11:12:48;19.70;99.90
3628;DHT22;1830;49.000;12.074;2023-05-07T11:15:15;19.60;99.90
3628;DHT22;1830;49.000;12.074;2023-05-07T11:17:53;19.50;99.90
3628;DHT22;1830;49.000;12.074;2023-05-07T11:20:22;19.50;99.90
3628;DHT22;1830;49.000;12.074;2023-05-07T11:23:12;19.70;99.90
3628;DHT22;1830;49.000;12.074;2023-05-07T11:25:59;19.90;99.90
3628;DHT22;1830;49.000;12.074;2023-05-07T11:28:27;20.10;99.90
3628;DHT22;1830;49.000;12.074;2023-05-07T11:30:54;20.20;99.90
3628;DHT22;1830;49.000;12.074;2023-05-07T11:33:22;20.40;99.90
3628;DHT22;1830;49.000;12.074;2023-05-07T11:35:52;20.50;99.90
3628;DHT22;1830;49.000;12.074;2023-05-07T11:38:20;20.90;99.90
3628;DHT22;1830;49.000;12.074;2023-05-07T11:40:50;21.10;99.90
3628;DHT22;1830;49.000;12.074;2023-05-07T11:43:17;21.40;99.90
3628;DHT22;1830;49.000;12.074;2023-05-07T11:45:44;21.50;99.90
3628;DHT22;1830;49.000;12.074;2023-05-07T11:48:12;21.60;99.90
3628;DHT22;1830;49.000;12.074;2023-05-07T11:50:51;21.70;99.90
3628;DHT22;1830;49.000;12.074;2023-05-07T11:53:18;21.70;98.60
3628;DHT22;1830;49.000;12.074;2023-05-07T11:55:45;21.50;97.50
3628;DHT22;1830;49.000;12.074;2023-05-07T11:58:12;21.00;97.10
3628;DHT22;1830;49.000;12.074;2023-05-07T12:00:48;21.30;97.60
3628;DHT22;1830;49.000;12.074;2023-05-07T12:03:15;21.60;99.40
3628;DHT22;1830;49.000;12.074;2023-05-07T12:05:43;21.60;99.90
3628;DHT22;1830;49.000;12.074;2023-05-07T12:08:13;21.50;99.90
3628;DHT22;1830;49.000;12.074;2023-05-07T12:10:41;21.40;99.90
3628;DHT22;1830;49.000;12.074;2023-05-07T12:13:14;21.50;99.90
3628;DHT22;1830;49.000;12.074;2023-05-07T12:15:41;21.40;99.90
3628;DHT22;1830;49.000;12.074;2023-05-07T12:18:08;21.30;99.90
3628;DHT22;1830;49.000;12.074;2023-05-07T12:20:35;21.00;99.90
3628;DHT22;1830;49.000;12.074;2023-05-07T12:23:03;21.20;99.90
3628;DHT22;1830;49.000;12.074;2023-05-07T12:25:31;21.40;99.90
3628;DHT22;1830;49.000;12.074;2023-05-07T12:28:00;21.60;99.80
3628;DHT22;1830;49.000;12.074;2023-05-07T12:30:27;21.70;99.90
3628;DHT22;1830;49.000;12.074;2023-05-07T12:32:55;21.80;99.00
3628;DHT22;1830;49.000;12.074;2023-05-07T12:35:28;21.90;99.30
3628;DHT22;1830;49.000;12.074;2023-05-07T12:37:55;22.00;98.70
3628;DHT22;1830;49.000;12.074;2023-05-07T12:40:22;21.90;98.60
3628;DHT22;1830;49.000;12.074;2023-05-07T12:42:53;21.70;98.00
3628;DHT22;1830;49.000;12.074;2023-05-07T12:45:21;21.90;98.40
3628;DHT22;1830;49.000;12.074;2023-05-07T12:47:47;22.00;97.60
3628;DHT22;1830;49.000;12.074;2023-05-07T12:50:15;22.20;97.80
3628;DHT22;1830;49.000;12.074;2023-05-07T12:52:43;22.30;97.60
3628;DHT22;1830;49.000;12.074;2023-05-07T12:55:13;22.50;97.40
3628;DHT22;1830;49.000;12.074;2023-05-07T12:57:41;22.50;97.00
3628;DHT22;1830;49.000;12.074;2023-05-07T13:00:10;22.50;96.50
3628;DHT22;1830;49.000;12.074;2023-05-07T13:02:39;22.60;96.80
3628;DHT22;1830;49.000;12.074;2023-05-07T13:05:06;22.70;96.40
3628;DHT22;1830;49.000;12.074;2023-05-07T13:07:33;22.70;95.60
3628;DHT22;1830;49.000;12.074;2023-05-07T13:10:01;22.90;96.40
3628;DHT22;1830;49.000;12.074;2023-05-07T13:12:28;23.00;96.00
3628;DHT22;1830;49.000;12.074;2023-05-07T13:14:55;23.00;95.90
3628;DHT22;1830;49.000;12.074;2023-05-07T13:17:23;22.90;95.60
3628;DHT22;1830;49.000;12.074;2023-05-07T13:19:50;23.00;95.20
3628;DHT22;1830;49.000;12.074;2023-05-07T13:22:17;23.10;94.90
3628;DHT22;1830;49.000;12.074;2023-05-07T13:24:43;23.30;94.80
3628;DHT22;1830;49.000;12.074;2023-05-07T13:27:10;23.20;94.40
3628;DHT22;1830;49.000;12.074;2023-05-07T13:29:37;23.20;94.70
3628;DHT22;1830;49.000;12.074;2023-05-07T13:32:04;23.30;94.10
3628;DHT22;1830;49.000;12.074;2023-05-07T13:34:32;23.20;93.40
3628;DHT22;1830;49.000;12.074;2023-05-07T13:36:59;23.30;93.50
3628;DHT22;1830;49.000;12.074;2023-05-07T13:39:26;23.30;93.30
3628;DHT22;1830;49.000;12.074;2023-05-07T13:41:53;23.30;93.10
3628;DHT22;1830;49.000;12.074;2023-05-07T13:44:19;23.40;93.30
3628;DHT22;1830;49.000;12.074;2023-05-07T13:46:46;23.50;92.70
3628;DHT22;1830;49.000;12.074;2023-05-07T13:49:13;23.50;92.20
3628;DHT22;1830;49.000;12.074;2023-05-07T13:51:41;23.50;91.80
3628;DHT22;1830;49.000;12.074;2023-05-07T13:54:08;23.60;91.60
3628;DHT22;1830;49.000;12.074;2023-05-07T13:56:35;23.50;91.60
3628;DHT22;1830;49.000;12.074;2023-05-07T13:59:01;23.30;91.80
3628;DHT22;1830;49.000;12.074;2023-05-07T14:01:28;23.30;92.50
3628;DHT22;1830;49.000;12.074;2023-05-07T14:03:55;23.40;91.60
3628;DHT22;1830;49.000;12.074;2023-05-07T14:06:23;23.40;91.40
3628;DHT22;1830;49.000;12.074;2023-05-07T14:08:51;23.50;92.10
3628;DHT22;1830;49.000;12.074;2023-05-07T14:11:18;23.50;91.40
3628;DHT22;1830;49.000;12.074;2023-05-07T14:13:44;23.40;90.70
3628;DHT22;1830;49.000;12.074;2023-05-07T14:16:11;23.50;90.90
3628;DHT22;1830;49.000;12.074;2023-05-07T14:18:38;23.50;91.00
3628;DHT22;1830;49.000;12.074;2023-05-07T14:21:05;23.50;91.00
3628;DHT22;1830;49.000;12.074;2023-05-07T14:23:33;23.40;90.80
3628;DHT22;1830;49.000;12.074;2023-05-07T14:26:01;23.30;90.90
3628;DHT22;1830;49.000;12.074;2023-05-07T14:28:27;23.40;90.60
3628;DHT22;1830;49.000;12.074;2023-05-07T14:30:54;23.40;90.90
3628;DHT22;1830;49.000;12.074;2023-05-07T14:33:21;23.30;90.80
3628;DHT22;1830;49.000;12.074;2023-05-07T14:35:48;23.30;90.50
3628;DHT22;1830;49.000;12.074;2023-05-07T14:38:15;23.30;90.70
3628;DHT22;1830;49.000;12.074;2023-05-07T14:40:42;23.20;90.60
3628;DHT22;1830;49.000;12.074;2023-05-07T14:43:10;23.20;90.80
3628;DHT22;1830;49.000;12.074;2023-05-07T14:45:37;23.20;90.80
3628;DHT22;1830;49.000;12.074;2023-05-07T14:48:04;23.10;90.60
3628;DHT22;1830;49.000;12.074;2023-05-07T14:50:31;23.00;90.50
3628;DHT22;1830;49.000;12.074;2023-05-07T14:52:57;22.90;91.00
3628;DHT22;1830;49.000;12.074;2023-05-07T14:55:24;22.80;91.10
3628;DHT22;1830;49.000;12.074;2023-05-07T14:57:51;22.70;90.60
3628;DHT22;1830;49.000;12.074;2023-05-07T15:00:19;22.60;90.80
3628;DHT22;1830;49.000;12.074;2023-05-07T15:02:46;22.50;90.80
3628;DHT22;1830;49.000;12.074;2023-05-07T15:05:13;22.40;90.60
3628;DHT22;1830;49.000;12.074;2023-05-07T15:07:41;22.20;90.60
3628;DHT22;1830;49.000;12.074;2023-05-07T15:10:08;22.20;91.20
3628;DHT22;1830;49.000;12.074;2023-05-07T15:12:35;22.20;91.30
3628;DHT22;1830;49.000;12.074;2023-05-07T15:15:02;22.20;91.90
3628;DHT22;1830;49.000;12.074;2023-05-07T15:17:30;22.20;91.70
3628;DHT22;1830;49.000;12.074;2023-05-07T15:19:57;22.10;92.10
3628;DHT22;1830;49.000;12.074;2023-05-07T15:22:24;22.00;92.20
3628;DHT22;1830;49.000;12.074;2023-05-07T15:24:51;22.00;92.40
3628;DHT22;1830;49.000;12.074;2023-05-07T15:27:17;21.90;92.30
3628;DHT22;1830;49.000;12.074;2023-05-07T15:29:44;21.90;92.10
3628;DHT22;1830;49.000;12.074;2023-05-07T15:32:11;21.90;92.40
3628;DHT22;1830;49.000;12.074;2023-05-07T15:34:40;21.80;92.30
3628;DHT22;1830;49.000;12.074;2023-05-07T15:37:07;21.50;92.30
3628;DHT22;1830;49.000;12.074;2023-05-07T15:39:34;21.60;92.40
3628;DHT22;1830;49.000;12.074;2023-05-07T15:42:01;21.60;92.60
3628;DHT22;1830;49.000;12.074;2023-05-07T15:44:28;21.50;92.90
3628;DHT22;1830;49.000;12.074;2023-05-07T15:46:58;21.50;92.80
3628;DHT22;1830;49.000;12.074;2023-05-07T15:49:25;21.50;93.10